Time;durP1;ratioP1;P1;durP2;ratioP2;P2;SDS_P1;SDS_P2;PMS_P1;PMS_P2;Temp;Humidity;BMP_temperature;BMP_pressure;BME280_temperature;BME280_humidity;BME280_pressure;Samples;Min_cycle;Max_cycle;Signal;HPM_P1;HPM_P2
2022/02/09 00:04:00;;;;;;;2.70;2.10;;;;;;;7.96;81.07;101881.06;5041747;28;20400;-78
2022/02/09 00:06:48;;;;;;;2.60;2.40;;;;;;;8.01;80.95;101886.72;5045811;28;20407;-78
2022/02/09 00:09:13;;;;;;;3.67;2.33;;;;;;;8.02;81.01;101886.53;5040242;28;20392;-78
2022/02/09 00:17:25;;;;;;;3.75;1.50;;;;;;;8.00;80.84;101887.75;5047929;28;20908;-78
2022/02/09 00:28:06;;;;;;;1.67;1.13;;;;;;;7.91;81.09;101892.44;5051061;28;20421;-78
2022/02/09 00:30:48;;;;;;;4.00;1.35;;;;;;;7.88;81.41;101883.88;5043621;28;20757;-78
2022/02/09 00:33:38;;;;;;;2.78;1.60;;;;;;;7.87;81.23;101876.84;5046323;28;20841;-78
2022/02/09 01:56:30;;;;;;;4.80;2.17;;;;;;;8.01;81.41;101816.53;5043171;28;20428;-78
2022/02/09 01:58:56;;;;;;;2.30;1.80;;;;;;;8.02;81.34;101816.34;5050586;28;20807;-78
2022/02/09 02:01:22;;;;;;;3.42;1.92;;;;;;;8.03;80.70;101814.47;5050165;28;20415;-78
2022/02/09 02:03:47;;;;;;;2.35;1.95;;;;;;;8.03;81.64;101811.78;5043294;28;20488;-78
2022/02/09 02:06:15;;;;;;;2.60;2.10;;;;;;;8.02;81.13;101802.84;5050937;28;20453;-78
2022/02/09 02:08:40;;;;;;;3.97;2.03;;;;;;;8.04;81.29;101808.03;5043916;28;20466;-78
2022/02/09 02:11:15;;;;;;;2.97;1.95;;;;;;;8.04;80.89;101810.72;5044770;28;20410;-78
2022/02/09 02:16:24;;;;;;;2.97;2.23;;;;;;;7.97;81.57;101805.28;5044978;28;20402;-78
2022/02/09 02:18:55;;;;;;;3.67;2.28;;;;;;;7.98;81.04;101804.25;5041553;28;20491;-78
2022/02/09 02:21:30;;;;;;;3.30;2.40;;;;;;;7.97;81.27;101801.75;5046793;28;20418;-78
2022/02/09 02:26:52;;;;;;;6.28;2.30;;;;;;;7.95;81.43;101793.84;5043713;28;20397;-78
2022/02/09 02:37:54;;;;;;;3.20;2.22;;;;;;;7.97;81.03;101796.38;5045203;28;20419;-78
2022/02/09 02:46:10;;;;;;;5.20;2.70;;;;;;;7.94;81.59;101780.53;5051455;28;20404;-78
2022/02/09 03:12:36;;;;;;;3.40;2.47;;;;;;;7.92;81.52;101752.91;5052527;28;20413;-78
2022/02/09 03:24:15;;;;;;;2.90;2.17;;;;;;;7.92;81.49;101751.06;5004785;28;20389;-78
2022/02/09 03:26:53;;;;;;;2.33;2.13;;;;;;;7.91;81.35;101749.38;5027245;28;20518;-78
2022/02/09 03:43:25;;;;;;;4.38;2.53;;;;;;;7.92;80.50;101748.34;5061829;28;20476;-78
2022/02/09 03:46:16;;;;;;;5.75;4.55;;;;;;;7.95;81.37;101752.53;5040478;28;20402;-78
2022/02/09 03:51:41;;;;;;;4.73;2.30;;;;;;;7.93;81.34;101743.78;5038284;28;20439;-78
2022/02/09 03:54:21;;;;;;;2.67;2.47;;;;;;;7.94;81.06;101745.44;5050347;28;20429;-78
2022/02/09 03:57:03;;;;;;;2.53;2.30;;;;;;;7.97;81.00;101751.28;5040618;28;20825;-78
2022/02/09 03:59:31;;;;;;;6.03;3.15;;;;;;;7.97;80.94;101751.28;5051961;28;20410;-78
2022/02/09 04:01:57;;;;;;;3.17;2.80;;;;;;;7.98;81.27;101742.16;5043377;28;20389;-78
2022/02/09 04:04:22;;;;;;;3.53;2.47;;;;;;;7.99;81.00;101751.94;5044089;28;20769;-78
2022/02/09 04:06:50;;;;;;;5.17;2.50;;;;;;;7.98;80.85;101752.13;5052476;28;20397;-79
2022/02/09 04:09:18;;;;;;;3.55;2.45;;;;;;;7.97;80.82;101747.78;5048583;28;20955;-78
2022/02/09 04:14:26;;;;;;;5.33;3.20;;;;;;;7.96;80.88;101754.19;5048749;28;21282;-78
2022/02/09 04:19:34;;;;;;;12.48;7.20;;;;;;;7.92;81.00;101742.13;5048008;28;20410;-78
2022/02/09 04:52:19;;;;;;;8.63;4.43;;;;;;;7.60;82.67;101740.81;5044092;28;20397;-78
2022/02/09 04:57:26;;;;;;;9.37;5.07;;;;;;;7.62;82.66;101744.16;5035410;28;20397;-78
2022/02/09 05:05:47;;;;;;;10.80;5.27;;;;;;;7.61;82.94;101734.38;5046152;28;20411;-78
2022/02/09 05:17:54;;;;;;;9.93;5.28;;;;;;;7.67;82.69;101739.84;5039973;28;20414;-78
2022/02/09 05:24:08;;;;;;;11.52;6.85;;;;;;;7.67;82.21;101742.53;5047185;28;20415;-77
2022/02/09 05:26:50;;;;;;;11.77;5.80;;;;;;;7.64;82.57;101751.03;5058494;28;20411;-78
2022/02/09 05:29:16;;;;;;;10.48;6.70;;;;;;;7.72;81.89;101748.19;5039079;28;20413;-78
2022/02/09 05:31:41;;;;;;;11.70;6.73;;;;;;;7.77;81.61;101747.63;5046526;28;20463;-78
2022/02/09 05:34:08;;;;;;;11.90;6.03;;;;;;;7.81;82.10;101752.41;5046963;28;20850;-78
2022/02/09 05:36:37;;;;;;;9.20;5.90;;;;;;;7.78;81.57;101755.50;5048809;28;20405;-78
2022/02/09 05:39:03;;;;;;;9.85;5.95;;;;;;;7.75;81.46;101760.47;5041953;28;20428;-78
2022/02/09 05:41:30;;;;;;;10.07;6.05;;;;;;;7.73;81.40;101747.19;5034645;28;20405;-78
2022/02/09 05:43:56;;;;;;;11.05;5.68;;;;;;;7.70;81.12;101752.13;5035441;28;20423;-78
2022/02/09 05:49:27;;;;;;;15.40;6.03;;;;;;;7.56;80.35;101753.88;5040351;28;20417;-78
2022/02/09 05:51:59;;;;;;;11.35;5.60;;;;;;;7.62;79.51;101757.66;5046265;28;20401;-78
2022/02/09 05:59:46;;;;;;;11.55;5.05;;;;;;;7.46;78.07;101771.41;5042073;28;20763;-79
2022/02/09 06:02:11;;;;;;;10.93;4.93;;;;;;;7.41;77.58;101763.88;5032046;28;20418;-79
2022/02/09 06:04:38;;;;;;;13.37;7.57;;;;;;;7.46;76.99;101761.44;5046127;28;20863;-78
2022/02/09 06:07:04;;;;;;;12.95;7.15;;;;;;;7.49;76.55;101769.16;5047426;28;20468;-79
2022/02/09 06:09:30;;;;;;;13.35;6.18;;;;;;;7.43;77.02;101774.47;5048007;28;20398;-78
2022/02/09 06:12:17;;;;;;;13.30;5.63;;;;;;;7.48;77.07;101767.47;5054842;28;20655;-78
2022/02/09 06:15:03;;;;;;;12.23;4.97;;;;;;;7.52;76.68;101766.06;5052909;28;20408;-79
2022/02/09 06:20:17;;;;;;;12.73;6.22;;;;;;;7.55;75.14;101760.28;5046330;28;20449;-80
2022/02/09 06:22:42;;;;;;;14.48;5.78;;;;;;;7.55;74.74;101764.84;5040889;28;20410;-79
2022/02/09 06:25:08;;;;;;;12.80;5.93;;;;;;;7.51;74.72;101756.28;5042344;28;20499;-78
2022/02/09 06:27:33;;;;;;;13.57;5.95;;;;;;;7.40;75.23;101758.69;5037769;28;20404;-79
2022/02/09 06:29:58;;;;;;;16.30;6.90;;;;;;;7.35;74.13;101763.81;5037225;28;20407;-78
2022/02/09 06:32:24;;;;;;;14.60;6.40;;;;;;;7.34;74.32;101751.38;5045043;28;21065;-79
2022/02/09 06:34:50;;;;;;;13.60;5.97;;;;;;;7.35;73.34;101742.22;5041595;28;20418;-78
2022/02/09 06:39:47;;;;;;;11.98;5.20;;;;;;;7.18;74.30;101750.56;5047786;28;20405;-79
2022/02/09 06:42:21;;;;;;;15.63;6.28;;;;;;;7.12;75.35;101753.19;5041543;28;20417;-78
2022/02/09 06:44:46;;;;;;;13.40;5.88;;;;;;;7.08;74.62;101746.53;5049802;28;20515;-78
2022/02/09 06:47:12;;;;;;;14.10;5.18;;;;;;;6.95;74.78;101743.69;5045768;28;20498;-78
2022/02/09 06:49:38;;;;;;;14.90;6.00;;;;;;;6.84;75.21;101742.31;5048249;28;20510;-78
2022/02/09 06:52:04;;;;;;;12.15;5.72;;;;;;;6.79;75.81;101739.34;5053158;28;20386;-78
2022/02/09 06:54:33;;;;;;;15.85;6.53;;;;;;;6.70;75.55;101748.56;5044863;28;21295;-78
2022/02/09 06:57:14;;;;;;;14.03;6.60;;;;;;;6.65;76.10;101745.63;5057500;28;20402;-79
2022/02/09 06:59:41;;;;;;;15.43;6.93;;;;;;;6.58;76.05;101750.91;5045598;28;20395;-78
2022/02/09 07:02:07;;;;;;;15.00;8.07;;;;;;;6.60;75.65;101738.09;5037846;28;20820;-80
2022/02/09 07:04:36;;;;;;;14.07;8.50;;;;;;;6.63;76.28;101753.88;5044139;28;20404;-79
2022/02/09 07:07:03;;;;;;;16.52;8.13;;;;;;;6.51;76.04;101741.91;5042309;28;20418;-79
2022/02/09 07:09:29;;;;;;;14.45;6.90;;;;;;;6.48;76.58;101749.53;5046640;28;20404;-80
2022/02/09 07:11:55;;;;;;;16.70;7.37;;;;;;;6.49;76.56;101738.56;5043875;28;20407;-80
2022/02/09 07:14:26;;;;;;;21.85;7.78;;;;;;;6.50;76.25;101737.53;5043047;28;20389;-80
2022/02/09 07:16:52;;;;;;;15.40;7.05;;;;;;;6.54;76.39;101738.84;5038295;28;20486;-80
2022/02/09 07:19:18;;;;;;;18.83;7.90;;;;;;;6.38;76.74;101733.66;5037990;28;20418;-79
2022/02/09 07:21:43;;;;;;;16.57;8.00;;;;;;;6.35;77.29;101728.66;5038734;28;20414;-80
2022/02/09 07:24:13;;;;;;;16.47;7.47;;;;;;;6.32;77.70;101734.41;5049809;28;20392;-80
2022/02/09 07:29:10;;;;;;;14.13;6.85;;;;;;;6.47;77.48;101737.91;5044637;28;20419;-80
2022/02/09 07:31:36;;;;;;;14.77;6.57;;;;;;;6.51;77.09;101741.91;5047408;28;20449;-80
2022/02/09 07:34:01;;;;;;;17.57;6.93;;;;;;;6.49;76.86;101745.78;5041549;28;20389;-80
2022/02/09 07:36:31;;;;;;;21.30;8.10;;;;;;;6.46;77.56;101748.84;5036518;28;20754;-80
2022/02/09 07:38:59;;;;;;;15.82;8.35;;;;;;;6.39;77.11;101737.19;5042184;28;20425;-80
2022/02/09 07:41:25;;;;;;;18.23;8.75;;;;;;;6.37;77.50;101741.91;5044733;28;20452;-80
2022/02/09 07:51:41;;;;;;;16.97;8.00;;;;;;;6.76;75.08;101737.88;5048377;28;20490;-80
2022/02/09 07:54:08;;;;;;;22.43;8.83;;;;;;;6.79;75.22;101742.03;5036367;28;20407;-79
2022/02/09 07:56:36;;;;;;;16.13;8.32;;;;;;;6.83;75.62;101745.19;5044053;28;20393;-80
2022/02/09 07:59:07;;;;;;;16.27;7.97;;;;;;;7.05;75.01;101742.34;5046369;28;23218;-80
2022/02/09 08:01:33;;;;;;;15.05;8.82;;;;;;;7.11;74.12;101744.28;5050190;28;20429;-80
2022/02/09 08:03:59;;;;;;;20.70;9.47;;;;;;;7.14;73.53;101743.91;5049022;28;20403;-80
2022/02/09 08:06:24;;;;;;;14.20;9.03;;;;;;;7.15;73.92;101737.47;5046015;28;20415;-80
2022/02/09 08:08:57;;;;;;;23.00;9.60;;;;;;;7.27;74.32;101743.22;5039818;28;20485;-79
2022/02/09 08:32:49;;;;;;;17.10;7.88;;;;;;;7.88;70.38;101713.84;5045484;28;20406;-80
2022/02/09 08:35:14;;;;;;;21.25;9.20;;;;;;;7.88;70.28;101709.28;5043492;28;20386;-80
2022/02/09 08:37:39;;;;;;;18.90;8.20;;;;;;;7.90;70.35;101711.81;5040220;28;20461;-80
2022/02/09 08:40:06;;;;;;;18.53;8.63;;;;;;;8.21;69.14;101701.41;5038669;28;20763;-80
2022/02/09 08:42:33;;;;;;;16.02;6.82;;;;;;;8.05;68.98;101702.56;5050748;28;20419;-80
2022/02/09 08:44:59;;;;;;;13.32;5.85;;;;;;;7.65;70.04;101697.91;5058485;28;20965;-80
2022/02/09 08:47:25;;;;;;;10.77;6.10;;;;;;;7.72;70.17;101702.31;5042636;28;20414;-80
2022/02/09 08:49:50;;;;;;;11.40;4.97;;;;;;;7.64;70.62;101699.75;5040108;28;20470;-79
2022/02/09 08:52:15;;;;;;;11.07;5.40;;;;;;;7.94;70.71;101699.56;5036855;28;20384;-80
2022/02/09 08:54:42;;;;;;;10.20;4.80;;;;;;;8.41;68.59;101702.38;5037690;28;20423;-80
2022/02/09 08:57:10;;;;;;;9.77;4.63;;;;;;;8.53;67.99;101695.34;5035352;28;20396;-80
2022/02/09 08:59:36;;;;;;;10.63;4.85;;;;;;;9.45;65.65;101695.56;5042143;28;20411;-80
2022/02/09 09:02:06;;;;;;;8.07;4.70;;;;;;;9.41;64.38;101691.63;5048073;28;20413;-80
2022/02/09 09:04:39;;;;;;;8.43;4.38;;;;;;;9.13;65.14;101686.38;5036405;28;20935;-80
2022/02/09 09:07:11;;;;;;;11.13;4.15;;;;;;;9.23;64.24;101688.69;5036465;28;20738;-80
2022/02/09 09:18:22;;;;;;;9.48;4.13;;;;;;;8.58;67.24;101686.66;5039485;28;20452;-80
2022/02/09 09:59:31;;;;;;;7.70;4.60;;;;;;;13.23;52.17;101666.97;5038480;28;20903;-81
2022/02/09 10:02:04;;;;;;;8.85;4.03;;;;;;;12.19;56.20;101663.72;5045582;28;20750;-80
2022/02/09 10:04:59;;;;;;;10.90;5.03;;;;;;;13.37;54.57;101670.31;5035975;28;20395;-81
2022/02/09 10:35:20;;;;;;;6.40;3.47;;;;;;;19.47;37.66;101647.31;5032915;28;20890;-81
2022/02/09 10:37:45;;;;;;;5.25;3.28;;;;;;;18.91;39.85;101637.31;5046102;28;20770;-81
2022/02/09 10:40:36;;;;;;;6.70;3.27;;;;;;;18.97;40.05;101642.56;5031256;28;20545;-81
2022/02/09 10:43:04;;;;;;;6.40;3.05;;;;;;;19.83;36.86;101623.34;5059878;28;20778;-81
2022/02/09 10:45:44;;;;;;;5.32;3.00;;;;;;;19.64;36.18;101636.03;5044356;28;20901;-81
2022/02/09 10:48:30;;;;;;;7.57;3.27;;;;;;;17.27;40.85;101627.63;5033077;28;20394;-81
2022/02/09 10:50:55;;;;;;;11.85;3.85;;;;;;;15.00;46.12;101630.81;5045921;28;20402;-80
2022/02/09 10:53:21;;;;;;;15.23;5.77;;;;;;;13.53;50.18;101628.78;5040528;28;20409;-81
2022/02/09 10:55:47;;;;;;;10.57;5.20;;;;;;;12.13;54.21;101623.84;5053740;28;20415;-81
2022/02/09 10:58:22;;;;;;;11.70;5.45;;;;;;;11.46;56.73;101620.94;5042835;28;20774;-80
2022/02/09 11:00:49;;;;;;;8.43;4.15;;;;;;;11.14;56.86;101618.50;5042429;28;20415;-80
2022/02/09 11:03:23;;;;;;;9.02;4.18;;;;;;;10.61;58.19;101613.44;5049131;28;20988;-80
2022/02/09 11:05:50;;;;;;;7.88;4.20;;;;;;;10.43;58.80;101607.91;5043729;28;20745;-80
2022/02/09 11:08:16;;;;;;;6.93;4.03;;;;;;;10.40;59.49;101602.94;5043606;28;20866;-80
2022/02/09 11:10:50;;;;;;;8.05;4.63;;;;;;;10.03;60.56;101601.78;5035242;28;20469;-80
2022/02/09 11:13:15;;;;;;;7.80;4.30;;;;;;;9.76;61.39;101598.34;5041151;28;20390;-80
2022/02/09 11:15:44;;;;;;;10.10;4.57;;;;;;;9.66;61.82;101592.53;5051538;28;20402;-80
2022/02/09 11:18:14;;;;;;;9.73;3.70;;;;;;;9.49;62.22;101587.75;5051618;28;20904;-79
2022/02/09 11:21:13;;;;;;;7.22;3.88;;;;;;;9.50;62.64;101584.84;5043091;28;20419;-80
2022/02/09 11:23:53;;;;;;;6.20;4.00;;;;;;;9.42;63.26;101581.53;5037405;28;20407;-80
2022/02/09 11:27:14;;;;;;;6.50;3.78;;;;;;;9.41;63.17;101574.47;5050199;28;20390;-80
2022/02/09 11:32:04;;;;;;;7.45;3.95;;;;;;;9.42;63.35;101573.44;5051641;28;20784;-80
2022/02/09 11:34:54;;;;;;;9.90;4.18;;;;;;;9.31;63.71;101569.47;5053063;28;20423;-80
2022/02/09 11:37:29;;;;;;;6.80;4.22;;;;;;;9.36;63.61;101567.78;5048472;28;20410;-80
2022/02/09 11:39:57;;;;;;;7.03;3.80;;;;;;;9.39;63.74;101555.72;5046812;28;20413;-80
2022/02/09 11:42:46;;;;;;;8.57;4.00;;;;;;;9.34;64.15;101552.81;5050639;28;20413;-80
2022/02/09 11:45:44;;;;;;;8.68;3.65;;;;;;;9.32;63.78;101549.47;5041212;28;20430;-80
2022/02/09 11:51:03;;;;;;;7.25;3.83;;;;;;;9.31;63.91;101540.56;5047740;28;20774;-80
2022/02/09 12:08:48;;;;;;;7.35;3.70;;;;;;;9.37;63.71;101547.81;5044443;28;20756;-80
2022/02/09 12:10:14;;;;;;;6.35;3.65;;;;;;;9.56;61.38;101537.16;5047613;28;20434;-80
2022/02/09 12:12:46;;;;;;;9.20;3.72;;;;;;;9.61;61.66;101532.78;5051832;28;20389;-80
2022/02/09 12:16:09;;;;;;;5.73;3.27;;;;;;;9.61;61.01;101524.69;5040366;28;20512;-80
2022/02/09 12:18:38;;;;;;;6.80;3.00;;;;;;;9.67;60.08;101513.00;5035310;28;20461;-79
2022/02/09 12:21:15;;;;;;;6.20;3.08;;;;;;;9.71;59.74;101518.81;5042968;28;20407;-79
2022/02/09 12:23:44;;;;;;;5.72;2.60;;;;;;;9.72;58.26;101507.75;5041093;28;20897;-80
2022/02/09 12:26:12;;;;;;;5.13;2.63;;;;;;;9.79;57.87;101505.03;5031735;28;20805;-79
2022/02/09 12:28:40;;;;;;;4.28;2.45;;;;;;;9.78;57.84;101506.09;5045706;28;20393;-81
2022/02/09 12:31:14;;;;;;;4.13;2.97;;;;;;;9.77;57.81;101497.13;5048166;28;20401;-80
2022/02/09 12:33:42;;;;;;;6.72;2.78;;;;;;;9.77;57.69;101490.88;5046886;28;20491;-81
2022/02/09 12:36:14;;;;;;;4.72;2.22;;;;;;;9.75;58.73;101484.84;5045113;28;20475;-81
2022/02/09 12:38:41;;;;;;;5.57;2.75;;;;;;;9.80;58.61;101491.28;5042015;28;20421;-80
2022/02/09 12:41:18;;;;;;;9.03;3.00;;;;;;;9.85;57.69;101482.50;5039492;28;20414;-79
2022/02/09 12:43:50;;;;;;;2.95;2.45;;;;;;;9.92;55.96;101483.31;5040223;28;20411;-77
2022/02/09 12:46:24;;;;;;;3.33;1.92;;;;;;;9.92;56.50;101469.78;5044441;28;20897;-78
2022/02/09 12:48:51;;;;;;;4.38;2.25;;;;;;;9.98;56.64;101473.50;5037735;28;20418;-77
2022/02/09 12:51:36;;;;;;;3.22;2.00;;;;;;;9.93;56.15;101467.91;5039224;28;20897;-77
2022/02/09 12:54:05;;;;;;;3.70;2.60;;;;;;;9.98;55.39;101462.69;5044180;28;20459;-78
2022/02/09 12:56:35;;;;;;;3.45;2.40;;;;;;;10.02;56.41;101462.00;5048317;28;20381;-78
2022/02/09 12:59:13;;;;;;;6.55;2.75;;;;;;;10.04;57.39;101450.97;5038902;28;20445;-78
2022/02/09 13:01:42;;;;;;;6.07;2.75;;;;;;;10.01;58.03;101446.78;5037659;28;20480;-79
2022/02/09 13:04:09;;;;;;;3.75;2.80;;;;;;;10.06;58.58;101457.00;5042739;28;20764;-78
2022/02/09 13:06:34;;;;;;;6.70;2.92;;;;;;;9.94;58.81;101446.03;5042051;28;20407;-77
2022/02/09 13:09:00;;;;;;;5.67;2.20;;;;;;;9.97;59.05;101447.47;5039847;28;20930;-77
2022/02/09 13:11:33;;;;;;;5.07;2.83;;;;;;;10.01;58.70;101443.28;5045619;28;20404;-79
2022/02/09 13:14:48;;;;;;;5.13;2.65;;;;;;;9.99;59.61;101440.78;5032093;28;20403;-77
2022/02/09 13:17:05;;;;;;;5.88;2.47;;;;;;;10.02;59.33;101434.94;5042716;28;20490;-80
2022/02/09 14:07:54;;;;;;;7.33;3.70;;;;;;;10.32;60.85;101400.78;5037011;28;20766;-78
2022/02/09 14:16:03;;;;;;;6.03;3.50;;;;;;;10.33;61.00;101394.34;5034797;28;20403;-77
2022/02/09 14:33:03;;;;;;;4.90;2.90;;;;;;;10.23;62.10;101380.44;5039239;28;20394;-79
2022/02/09 14:51:33;;;;;;;6.68;2.85;;;;;;;10.40;61.59;101373.44;5052928;28;20484;-78
2022/02/09 14:54:05;;;;;;;13.38;4.68;;;;;;;10.33;61.60;101359.13;5037326;28;20516;-78
2022/02/09 14:59:04;;;;;;;9.45;4.88;;;;;;;10.30;61.80;101362.28;5054471;28;20424;-77
2022/02/09 15:01:37;;;;;;;12.50;6.85;;;;;;;10.32;61.56;101356.63;5051496;28;20402;-78
2022/02/09 15:09:36;;;;;;;5.32;2.75;;;;;;;10.15;61.44;101359.03;5042270;28;20377;-77
2022/02/09 15:12:14;;;;;;;7.47;4.15;;;;;;;10.15;62.21;101359.03;5052489;28;20610;-78
2022/02/09 15:15:27;;;;;;;9.45;3.80;;;;;;;10.23;62.01;101350.66;5047680;28;20438;-78
2022/02/09 15:20:39;;;;;;;6.75;3.28;;;;;;;10.26;62.18;101349.38;5051253;28;20894;-78
2022/02/09 15:22:59;;;;;;;5.13;2.90;;;;;;;10.27;62.05;101351.03;5046367;28;20406;-78
2022/02/09 15:25:30;;;;;;;8.27;3.67;;;;;;;10.29;61.84;101355.19;5043392;28;20409;-78
2022/02/09 15:28:01;;;;;;;5.83;3.57;;;;;;;10.29;62.01;101355.19;5039068;28;20932;-78
2022/02/09 15:30:29;;;;;;;7.43;3.58;;;;;;;10.22;62.06;101350.84;5052376;28;20765;-78
2022/02/09 15:32:57;;;;;;;6.88;3.00;;;;;;;10.15;62.44;101345.50;5053893;28;20389;-78
2022/02/09 15:35:42;;;;;;;4.33;2.90;;;;;;;10.21;62.67;101349.19;5049492;28;20584;-78
2022/02/09 15:38:16;;;;;;;6.88;3.08;;;;;;;10.23;62.54;101341.69;5035884;28;20506;-78
2022/02/09 15:44:00;;;;;;;5.00;3.30;;;;;;;10.23;61.83;101341.69;5046646;28;20436;-78
2022/02/09 15:57:58;;;;;;;1.88;1.70;;;;;;;10.01;62.02;101332.25;5034871;28;20895;-78
2022/02/09 16:05:47;;;;;;;2.25;1.73;;;;;;;9.80;62.72;101333.44;5037392;28;20383;-78
2022/02/09 16:11:00;;;;;;;2.72;1.80;;;;;;;9.69;63.50;101324.13;5033629;28;20395;-78
2022/02/09 16:36:35;;;;;;;7.38;2.42;;;;;;;9.14;65.40;101325.69;5047235;28;20406;-78
2022/02/09 16:38:38;;;;;;;2.90;2.22;;;;;;;9.09;65.59;101317.38;5044900;28;20470;-78
2022/02/09 16:46:35;;;;;;;4.78;3.75;;;;;;;8.93;65.53;101319.72;5042316;28;20436;-77
2022/02/09 16:49:24;;;;;;;6.30;4.20;;;;;;;8.85;65.96;101316.22;5034982;28;20395;-79
2022/02/09 16:51:58;;;;;;;4.63;3.42;;;;;;;8.78;66.21;101318.13;5042896;28;20391;-78
2022/02/09 16:57:01;;;;;;;7.00;3.33;;;;;;;8.67;66.08;101321.47;5039144;28;20894;-78
2022/02/09 17:21:08;;;;;;;8.02;3.60;;;;;;;8.16;69.87;101332.09;5032114;28;20414;-79
2022/02/09 17:23:33;;;;;;;9.68;3.53;;;;;;;8.10;70.21;101330.22;5042079;28;20885;-78
2022/02/09 17:25:58;;;;;;;6.00;3.30;;;;;;;8.08;70.11;101329.59;5040167;28;20485;-81
2022/02/09 17:28:24;;;;;;;7.47;3.77;;;;;;;8.05;70.46;101324.63;5034342;28;20936;-78
2022/02/09 17:31:36;;;;;;;5.20;3.38;;;;;;;8.03;70.52;101328.56;5049590;28;20463;-78
2022/02/09 17:33:50;;;;;;;5.80;3.07;;;;;;;7.99;70.25;101325.44;5039470;28;20404;-78
2022/02/09 17:36:25;;;;;;;5.47;2.92;;;;;;;7.95;71.17;101332.28;5041131;28;20409;-78
2022/02/09 17:39:04;;;;;;;4.33;2.80;;;;;;;7.94;71.12;101330.63;5044306;28;20428;-78
2022/02/09 17:57:55;;;;;;;5.97;3.15;;;;;;;7.80;70.70;101312.78;5031102;28;20522;-79
2022/02/09 18:00:21;;;;;;;4.90;2.83;;;;;;;7.79;70.58;101311.09;5031999;28;20407;-79
2022/02/09 18:02:49;;;;;;;3.10;2.47;;;;;;;7.77;70.43;101308.59;5037895;28;20399;-79
2022/02/09 18:05:24;;;;;;;2.42;2.20;;;;;;;7.72;70.98;101312.94;5039920;28;20448;-79
2022/02/09 18:08:06;;;;;;;2.88;2.20;;;;;;;7.67;70.80;101310.84;5030415;28;20398;-78
2022/02/09 18:29:07;;;;;;;9.13;5.05;;;;;;;7.34;72.35;101315.38;5034167;28;21101;-79
2022/02/09 18:32:07;;;;;;;22.40;13.90;;;;;;;7.30;72.50;101306.84;5045274;28;20799;-79
2022/02/09 18:42:44;;;;;;;29.77;16.98;;;;;;;7.24;72.97;101290.66;5045350;28;20461;-79
2022/02/09 18:47:50;;;;;;;14.50;9.98;;;;;;;7.21;72.81;101274.91;5031662;28;20466;-79
2022/02/09 19:04:08;;;;;;;4.90;3.92;;;;;;;6.79;74.17;101265.19;5033838;28;20418;-79
2022/02/09 19:15:06;;;;;;;9.10;4.47;;;;;;;6.57;74.78;101267.16;5042256;28;20410;-78
2022/02/09 19:29:02;;;;;;;18.48;12.73;;;;;;;6.45;75.18;101268.75;5030255;28;20418;-79
2022/02/09 19:31:18;;;;;;;12.30;9.18;;;;;;;6.44;75.59;101269.78;5039044;28;20867;-79
2022/02/09 19:50:06;;;;;;;19.47;15.57;;;;;;;6.26;75.53;101256.81;5039194;28;20413;-78
2022/02/09 19:57:55;;;;;;;23.02;14.20;;;;;;;6.18;76.06;101264.22;5034479;28;20617;-79
2022/02/09 20:00:22;;;;;;;16.95;12.07;;;;;;;6.15;76.59;101261.94;5059066;28;20819;-78
2022/02/09 20:02:47;;;;;;;20.17;10.73;;;;;;;6.12;76.40;101273.94;5037844;28;20419;-80
2022/02/09 20:05:21;;;;;;;15.23;10.03;;;;;;;6.09;76.51;101268.09;5036126;28;20447;-77
2022/02/09 20:07:46;;;;;;;16.42;10.15;;;;;;;6.07;75.89;101262.91;5036922;28;20417;-80
2022/02/09 20:10:12;;;;;;;13.27;9.45;;;;;;;6.03;76.55;101258.94;5046579;28;20405;-80
2022/02/09 20:12:39;;;;;;;9.80;6.20;;;;;;;5.99;76.28;101256.84;5036592;28;20835;-80
2022/02/09 20:15:06;;;;;;;7.97;4.60;;;;;;;5.93;76.14;101260.31;5036337;28;20415;-80
2022/02/09 20:17:31;;;;;;;8.57;3.90;;;;;;;5.86;76.17;101245.97;5034688;28;20396;-79
2022/02/09 20:19:57;;;;;;;5.55;3.00;;;;;;;5.80;76.45;101252.09;5037287;28;20411;-79
2022/02/09 20:22:23;;;;;;;6.45;3.05;;;;;;;5.69;76.32;101256.16;5031307;28;20976;-81
2022/02/09 20:24:49;;;;;;;5.30;2.53;;;;;;;5.56;76.44;101248.81;5049754;28;20437;-80
2022/02/09 20:27:19;;;;;;;4.20;2.38;;;;;;;5.45;76.80;101254.69;5038041;28;20411;-80
2022/02/09 20:29:44;;;;;;;7.53;3.55;;;;;;;5.38;76.82;101250.25;5038308;28;20468;-80
2022/02/09 20:34:44;;;;;;;3.08;2.60;;;;;;;5.41;76.62;101252.56;5040975;28;20411;-80
2022/02/09 20:37:10;;;;;;;6.28;2.97;;;;;;;5.44;76.87;101257.56;5038291;28;20389;-80
2022/02/09 20:39:42;;;;;;;5.68;2.70;;;;;;;5.44;76.86;101254.88;5047479;28;20419;-80
2022/02/09 20:42:14;;;;;;;8.40;4.33;;;;;;;5.45;76.51;101260.06;5032456;28;20427;-79
2022/02/09 20:44:46;;;;;;;9.90;4.70;;;;;;;5.42;76.36;101263.13;5042315;28;20464;-81
2022/02/09 20:47:12;;;;;;;18.42;8.27;;;;;;;5.39;76.82;101263.53;5036506;28;20403;-79
2022/02/09 20:49:37;;;;;;;21.90;8.85;;;;;;;5.40;76.98;101259.78;5040581;28;20413;-80
2022/02/09 20:52:03;;;;;;;23.03;9.07;;;;;;;5.41;76.71;101266.00;5047732;28;20398;-80
2022/02/09 20:54:28;;;;;;;14.93;6.37;;;;;;;5.41;76.68;101257.94;5045031;28;20473;-80
2022/02/09 20:56:54;;;;;;;12.03;7.27;;;;;;;5.39;77.14;101265.38;5036122;28;20415;-80
2022/02/09 20:59:19;;;;;;;15.75;7.80;;;;;;;5.38;77.08;101267.22;5032198;28;20418;-80
2022/02/09 21:01:56;;;;;;;8.57;4.97;;;;;;;5.36;76.94;101269.28;5032195;28;20487;-80
2022/02/09 21:04:25;;;;;;;10.73;5.40;;;;;;;5.38;76.82;101267.22;5051896;28;20488;-80
2022/02/09 21:07:21;;;;;;;9.67;5.37;;;;;;;5.36;77.11;101269.28;5041510;28;20500;-80
2022/02/09 21:09:57;;;;;;;10.57;5.97;;;;;;;5.35;76.79;101267.63;5032331;28;20407;-80
2022/02/09 21:12:37;;;;;;;9.88;6.88;;;;;;;5.33;76.91;101269.66;5037888;28;20403;-80
2022/02/09 21:23:22;;;;;;;9.13;5.65;;;;;;;5.25;76.71;101256.34;5046019;28;20399;-80
2022/02/09 21:29:40;;;;;;;7.00;4.97;;;;;;;5.16;76.27;101260.19;5044533;28;20434;-80
2022/02/09 21:31:47;;;;;;;6.78;4.13;;;;;;;5.01;75.64;101256.69;5035138;28;20463;-80
2022/02/09 21:52:35;;;;;;;4.13;3.25;;;;;;;4.86;76.75;101235.25;5033425;28;20742;-80
2022/02/09 21:55:23;;;;;;;4.20;3.17;;;;;;;4.81;76.86;101228.78;5039454;28;20407;-80
2022/02/09 21:57:58;;;;;;;4.43;3.42;;;;;;;4.75;76.88;101233.03;5031401;28;20418;-80
2022/02/09 22:16:46;;;;;;;4.72;3.28;;;;;;;4.50;76.51;101213.75;5039886;28;20758;-80
2022/02/09 22:19:43;;;;;;;5.15;2.80;;;;;;;4.49;76.59;101213.91;5030038;28;20458;-80
2022/02/09 22:25:33;;;;;;;5.67;3.47;;;;;;;4.41;76.30;101201.41;5042668;28;20412;-80
2022/02/09 22:27:25;;;;;;;4.55;3.28;;;;;;;4.38;76.33;101204.47;5032957;28;20841;-80
2022/02/09 22:45:40;;;;;;;4.00;3.60;;;;;;;4.04;76.73;101198.88;5043843;28;20470;-80
2022/02/09 22:55:45;;;;;;;4.07;2.90;;;;;;;4.13;75.52;101185.16;5043140;28;20420;-80
2022/02/09 22:58:12;;;;;;;4.45;3.08;;;;;;;4.11;75.62;101186.38;5040607;28;20950;-80
2022/02/09 23:00:48;;;;;;;4.65;3.50;;;;;;;4.07;75.66;101187.75;5034783;28;20395;-80
2022/02/09 23:03:21;;;;;;;5.40;3.17;;;;;;;4.02;75.72;101176.75;5035867;28;20430;-80
2022/02/09 23:06:04;;;;;;;3.73;3.30;;;;;;;4.00;75.50;101179.63;5035995;28;20454;-80
2022/02/09 23:13:46;;;;;;;3.47;3.17;;;;;;;3.95;75.87;101181.19;5045228;28;20405;-80
2022/02/09 23:16:44;;;;;;;4.50;3.22;;;;;;;3.93;75.79;101178.69;5039866;28;20414;-80
2022/02/09 23:22:35;;;;;;;3.50;3.05;;;;;;;3.84;75.78;101177.13;5049279;28;20396;-80
2022/02/09 23:25:19;;;;;;;5.78;2.70;;;;;;;3.82;75.62;101171.09;5045677;28;20398;-80
2022/02/09 23:28:17;;;;;;;5.73;3.07;;;;;;;3.79;75.58;101163.41;5034978;28;20593;-80
